Strona główna
METAR-TAF:

METAR-TAF

Lotnisko :

Port lotniczy Hyderabad-Begumpet

Hajdarabad, Indie

Szerokość geograficzna: 17-27N, Długość geograficzna: 078-28E, wysokość: 530 m

Aktualna obserwacja pogody

Raport powstał 10 godziny i 3 minut temu, godzina 12:30 UTC
Wiatr 2 kt od wschód
Temperatura 39°C
Wilgotność 28%
Ciśnienie 1008 hPa
Widzialność: 6000 m
Mało chmury na wysokości 2000 ft
Rozproszone chmury na wysokości 2500 ft

METAR: VOHY 301230Z 08002KT 6000 FEW020 SCT025 39/17 Q1008 NOSIG

czas: 04:03 (22:33 UTC)

Prognoza

Raport powstał 11 godziny i 33 minut temu, godzina 11:00 UTC
Prognoza ważna od 30 godzina 12 UTC do 30 godzina 21 UTC
Wiatr 7 kt od zachód
Widzialność: 6000 m
Mało chmury na wysokości 1500 ft
Rozproszone chmury na wysokości 10000 ft

TAF: VOHY 301100Z 3012/3021 28007KT 6000 FEW015 SCT100

Obserwacja i prognoza pogody dla ponad 4000 lotnisk (raport METAR i TAF).

Dostępne stacje oznaczono żółtymi i czerwonymi punktami na mapie.

Najedź kursorem aby zobaczyć nazwę stacji.

Kliknij aby zobaczyć obserwacje i prognozy pogody.

Aby zmienić mapę: kliknij na zielony przycisk z czarnym krzyżykiem, aby powiększyć; na zielony przycisk z myślnikiem, aby pomniejszyć; na zielone strzałki, aby przejść do map sąsiednich.


METAR-TAF: